createdAt,value
2018-08-28T00:02:29.073Z,99.90
2018-08-28T00:04:57.921Z,99.90
2018-08-28T00:07:26.612Z,99.90
2018-08-28T00:09:55.348Z,99.90
2018-08-28T00:12:24.053Z,99.90
2018-08-28T00:14:52.755Z,99.90
2018-08-28T00:17:21.490Z,99.90
2018-08-28T00:19:50.216Z,99.90
2018-08-28T00:22:18.933Z,99.90
2018-08-28T00:24:47.669Z,99.90
2018-08-28T00:27:16.718Z,99.90
2018-08-28T00:29:45.422Z,99.90
2018-08-28T00:32:14.147Z,99.90
2018-08-28T00:34:42.839Z,99.90
2018-08-28T00:37:11.634Z,99.90
2018-08-28T00:39:40.418Z,99.90
2018-08-28T00:42:09.170Z,99.90
2018-08-28T00:44:37.888Z,99.90
2018-08-28T00:47:06.643Z,99.90
2018-08-28T00:49:35.402Z,99.90
2018-08-28T00:52:04.107Z,99.90
2018-08-28T00:54:33.211Z,99.90
2018-08-28T00:57:01.953Z,99.90
2018-08-28T00:59:30.634Z,99.90
2018-08-28T01:01:59.346Z,99.90
2018-08-28T01:04:28.001Z,99.90
2018-08-28T01:06:56.720Z,99.90
2018-08-28T01:09:25.360Z,99.90
2018-08-28T01:11:58.589Z,99.90
2018-08-28T01:14:31.558Z,99.90
2018-08-28T01:17:05.460Z,99.90
2018-08-28T01:19:39.404Z,99.90
2018-08-28T01:22:13.070Z,99.90
2018-08-28T01:24:46.499Z,99.90
2018-08-28T01:27:21.920Z,99.90
2018-08-28T01:29:56.838Z,99.90
2018-08-28T01:32:30.778Z,99.90
2018-08-28T01:35:04.583Z,99.90
2018-08-28T01:37:38.496Z,99.90
2018-08-28T01:40:12.323Z,99.90
2018-08-28T01:42:43.636Z,99.90
2018-08-28T01:45:16.152Z,99.90
2018-08-28T01:47:48.835Z,99.90
2018-08-28T01:50:21.539Z,99.90
2018-08-28T01:52:55.002Z,99.90
2018-08-28T01:55:27.930Z,99.90
2018-08-28T01:58:00.364Z,99.90
2018-08-28T02:00:34.247Z,99.90
2018-08-28T02:03:11.108Z,99.90
2018-08-28T02:05:45.063Z,99.90
2018-08-28T02:08:19.819Z,99.90
2018-08-28T02:10:55.869Z,99.90
2018-08-28T02:13:29.270Z,99.90
2018-08-28T02:16:11.153Z,99.90
2018-08-28T02:18:44.169Z,99.90
2018-08-28T02:21:17.481Z,99.90
2018-08-28T02:23:50.989Z,99.90
2018-08-28T02:26:24.722Z,99.90
2018-08-28T02:28:59.179Z,99.90
2018-08-28T02:31:34.285Z,99.90
2018-08-28T02:34:09.136Z,99.90
2018-08-28T02:36:43.116Z,99.90
2018-08-28T02:39:17.504Z,99.90
2018-08-28T02:41:49.698Z,99.90
2018-08-28T02:44:22.448Z,99.90
2018-08-28T02:46:52.992Z,99.90
2018-08-28T02:49:26.748Z,99.90
2018-08-28T02:51:59.333Z,99.90
2018-08-28T02:54:32.393Z,99.90
2018-08-28T02:57:05.241Z,99.90
2018-08-28T02:59:37.980Z,99.90
2018-08-28T03:02:11.495Z,99.90
2018-08-28T03:04:45.355Z,99.90
2018-08-28T03:07:19.842Z,99.90
2018-08-28T03:09:52.895Z,99.90
2018-08-28T03:12:26.768Z,99.90
2018-08-28T03:15:00.709Z,99.90
2018-08-28T03:17:33.225Z,99.90
2018-08-28T03:20:09.352Z,99.90
2018-08-28T03:22:43.137Z,99.90
2018-08-28T03:25:16.087Z,99.90
2018-08-28T03:27:49.690Z,99.90
2018-08-28T03:30:22.684Z,99.90
2018-08-28T03:32:55.633Z,99.90
2018-08-28T03:35:28.544Z,99.90
2018-08-28T03:38:01.310Z,99.90
2018-08-28T03:40:34.343Z,99.90
2018-08-28T03:43:07.015Z,99.90
2018-08-28T03:45:40.132Z,99.90
2018-08-28T03:48:12.361Z,99.90
2018-08-28T03:50:46.550Z,99.90
2018-08-28T03:53:19.214Z,99.90
2018-08-28T03:55:52.266Z,99.90
2018-08-28T03:58:25.655Z,99.90
2018-08-28T04:00:56.596Z,99.90
2018-08-28T04:03:29.249Z,99.90
2018-08-28T04:06:01.842Z,99.90
2018-08-28T04:08:34.487Z,99.90
2018-08-28T04:11:08.063Z,99.90
2018-08-28T04:13:40.823Z,99.90
2018-08-28T04:16:13.499Z,99.90
2018-08-28T04:18:46.104Z,99.90
2018-08-28T04:21:17.849Z,99.90
2018-08-28T04:23:51.992Z,99.90
2018-08-28T04:26:25.615Z,99.90
2018-08-28T04:28:57.967Z,99.90
2018-08-28T04:31:30.252Z,99.90
2018-08-28T04:34:03.329Z,99.90
2018-08-28T04:36:35.738Z,99.90
2018-08-28T04:39:08.716Z,99.90
2018-08-28T04:41:41.487Z,99.90
2018-08-28T04:44:11.249Z,99.90
2018-08-28T04:46:41.088Z,99.90
2018-08-28T04:49:11.117Z,99.90
2018-08-28T04:51:41.471Z,99.90
2018-08-28T04:54:14.615Z,99.90
2018-08-28T04:56:46.840Z,99.90
2018-08-28T04:59:15.545Z,99.90
2018-08-28T05:01:44.276Z,99.90
2018-08-28T05:04:12.971Z,99.90
2018-08-28T05:06:41.705Z,99.90
2018-08-28T05:09:10.381Z,99.90
2018-08-28T05:11:39.129Z,99.90
2018-08-28T05:14:07.881Z,99.90
2018-08-28T05:16:36.541Z,99.90
2018-08-28T05:19:05.409Z,99.90
2018-08-28T05:21:34.226Z,99.90
2018-08-28T05:24:02.993Z,99.90
2018-08-28T05:26:31.664Z,99.90
2018-08-28T05:29:00.433Z,99.90
2018-08-28T05:31:29.110Z,99.90
2018-08-28T05:33:57.858Z,99.90
2018-08-28T05:36:26.611Z,99.90
2018-08-28T05:38:55.418Z,99.90
2018-08-28T05:41:24.296Z,99.90
2018-08-28T05:43:53.029Z,99.90
2018-08-28T05:46:21.811Z,99.90
2018-08-28T05:48:50.633Z,99.90
2018-08-28T05:51:19.345Z,99.90
2018-08-28T05:53:48.037Z,99.90
2018-08-28T05:56:16.880Z,99.90
2018-08-28T05:58:45.486Z,99.90
2018-08-28T06:01:14.176Z,99.90
2018-08-28T06:03:42.952Z,99.90
2018-08-28T06:06:11.677Z,99.90
2018-08-28T06:08:40.464Z,99.90
2018-08-28T06:11:09.257Z,99.90
2018-08-28T06:13:38.164Z,99.90
2018-08-28T06:16:07.260Z,99.90
2018-08-28T06:18:36.004Z,99.90
2018-08-28T06:21:04.865Z,99.90
2018-08-28T06:23:33.566Z,99.90
2018-08-28T06:26:02.271Z,99.90
2018-08-28T06:28:30.984Z,99.90
2018-08-28T06:30:59.920Z,99.90
2018-08-28T06:33:28.634Z,99.90
2018-08-28T06:35:57.444Z,99.90
2018-08-28T06:38:26.292Z,99.90
2018-08-28T06:40:55.213Z,99.90
2018-08-28T06:43:24.036Z,99.90
2018-08-28T06:45:53.399Z,99.90
2018-08-28T06:48:22.181Z,99.90
2018-08-28T06:50:50.981Z,99.90
2018-08-28T06:53:19.795Z,99.90
2018-08-28T06:55:48.809Z,99.90
2018-08-28T06:58:17.668Z,99.90
2018-08-28T07:00:46.477Z,99.90
2018-08-28T07:03:15.171Z,99.90
2018-08-28T07:05:43.991Z,99.90
2018-08-28T07:08:12.819Z,99.90
2018-08-28T07:10:41.575Z,99.90
2018-08-28T07:13:10.286Z,99.90
2018-08-28T07:15:39.159Z,99.90
2018-08-28T07:18:07.965Z,99.90
2018-08-28T07:20:36.757Z,99.90
2018-08-28T07:23:05.761Z,99.90
2018-08-28T07:25:34.586Z,99.90
2018-08-28T07:28:03.563Z,99.90
2018-08-28T07:30:32.266Z,99.90
2018-08-28T07:33:01.066Z,99.90
2018-08-28T07:35:29.745Z,99.90
2018-08-28T07:37:58.511Z,99.90
2018-08-28T07:40:27.396Z,99.90
2018-08-28T07:42:56.304Z,99.90
2018-08-28T07:45:25.137Z,99.90
2018-08-28T07:47:53.929Z,99.90
2018-08-28T07:50:22.641Z,99.90
2018-08-28T07:52:54.572Z,99.90
2018-08-28T07:55:23.434Z,99.90
2018-08-28T07:57:52.122Z,99.90
2018-08-28T08:00:20.893Z,99.90
2018-08-28T08:02:49.636Z,99.90
2018-08-28T08:05:18.370Z,99.90
2018-08-28T08:07:47.130Z,99.90
2018-08-28T08:10:15.914Z,99.90
2018-08-28T08:12:44.817Z,99.90
2018-08-28T08:15:13.781Z,99.90
2018-08-28T08:17:42.640Z,99.90
2018-08-28T08:20:11.593Z,99.90
2018-08-28T08:22:40.368Z,99.90
2018-08-28T08:25:09.289Z,99.90
2018-08-28T08:27:38.038Z,99.90
2018-08-28T08:30:07.467Z,99.90
2018-08-28T08:32:36.128Z,99.50
2018-08-28T08:35:04.973Z,99.70
2018-08-28T08:37:33.811Z,98.30
2018-08-28T08:40:02.646Z,99.90
2018-08-28T08:42:31.448Z,98.50
2018-08-28T08:45:03.123Z,98.60
2018-08-28T08:47:31.849Z,96.50
2018-08-28T08:50:00.652Z,96.40
2018-08-28T08:52:36.722Z,94.60
2018-08-28T08:55:05.661Z,93.90
2018-08-28T08:57:34.449Z,93.10
2018-08-28T09:00:04.666Z,91.90
2018-08-28T09:02:40.085Z,92.00
2018-08-28T09:05:08.833Z,91.90
2018-08-28T09:07:37.584Z,91.10
2018-08-28T09:10:06.365Z,90.40
2018-08-28T09:12:35.302Z,90.70
2018-08-28T09:15:04.267Z,90.10
2018-08-28T09:17:33.628Z,89.80
2018-08-28T09:20:02.453Z,88.60
2018-08-28T09:22:31.927Z,90.40
2018-08-28T09:25:00.861Z,88.30
2018-08-28T09:27:29.740Z,85.00
2018-08-28T09:29:58.496Z,85.50
2018-08-28T09:32:27.499Z,88.90
2018-08-28T09:34:56.900Z,85.50
2018-08-28T09:37:27.047Z,83.80
2018-08-28T09:39:56.134Z,81.10
2018-08-28T09:42:25.049Z,82.00
2018-08-28T09:44:53.784Z,79.40
2018-08-28T09:47:22.508Z,80.40
2018-08-28T09:49:51.307Z,76.10
2018-08-28T09:52:20.341Z,73.50
2018-08-28T09:54:49.129Z,72.10
2018-08-28T09:57:17.912Z,72.10
2018-08-28T09:59:46.589Z,69.90
2018-08-28T10:02:17.185Z,69.20
2018-08-28T10:04:46.543Z,67.10
2018-08-28T10:07:16.230Z,68.30
2018-08-28T10:09:45.126Z,67.20
2018-08-28T10:12:13.947Z,64.20
2018-08-28T10:14:43.221Z,61.90
2018-08-28T10:17:12.002Z,57.50
2018-08-28T10:19:40.675Z,57.40
2018-08-28T10:22:09.481Z,58.80
2018-08-28T10:24:38.246Z,56.20
2018-08-28T10:27:07.286Z,58.20
2018-08-28T10:29:36.179Z,56.90
2018-08-28T10:32:05.015Z,57.90
2018-08-28T10:34:33.772Z,57.00
2018-08-28T10:37:02.726Z,55.40
2018-08-28T10:39:31.466Z,53.40
2018-08-28T10:42:00.185Z,55.10
2018-08-28T10:44:29.122Z,55.60
2018-08-28T10:46:57.904Z,54.00
2018-08-28T10:49:26.912Z,53.30
2018-08-28T10:51:55.786Z,52.60
2018-08-28T10:54:24.547Z,53.20
2018-08-28T10:56:53.312Z,57.10
2018-08-28T10:59:22.034Z,54.00
2018-08-28T11:01:50.991Z,50.50
2018-08-28T11:04:19.837Z,52.40
2018-08-28T11:06:48.522Z,53.80
2018-08-28T11:09:17.393Z,53.30
2018-08-28T11:11:46.147Z,52.10
2018-08-28T11:14:14.994Z,50.60
2018-08-28T11:16:43.756Z,52.20
2018-08-28T11:19:12.696Z,52.10
2018-08-28T11:21:41.454Z,51.80
2018-08-28T11:24:10.364Z,50.90
2018-08-28T11:26:39.264Z,51.00
2018-08-28T11:29:08.095Z,50.50
2018-08-28T11:31:36.821Z,52.60
2018-08-28T11:34:05.624Z,51.10
2018-08-28T11:36:34.449Z,51.40
2018-08-28T11:39:03.454Z,53.80
2018-08-28T11:41:32.345Z,51.90
2018-08-28T11:44:01.201Z,50.80
2018-08-28T11:46:30.232Z,52.50
2018-08-28T11:48:59.060Z,51.90
2018-08-28T11:51:27.768Z,50.70
2018-08-28T11:53:56.648Z,50.80
2018-08-28T11:56:25.495Z,51.10
2018-08-28T11:58:54.569Z,51.00
2018-08-28T12:01:23.435Z,53.20
2018-08-28T12:03:52.391Z,52.80
2018-08-28T12:06:21.320Z,53.00
2018-08-28T12:08:50.137Z,52.00
2018-08-28T12:11:18.867Z,52.50
2018-08-28T12:13:47.687Z,53.30
2018-08-28T12:16:16.516Z,53.50
2018-08-28T12:18:45.209Z,53.20
2018-08-28T12:21:14.026Z,52.20
2018-08-28T12:23:42.813Z,52.10
2018-08-28T12:26:11.540Z,53.10
2018-08-28T12:28:40.404Z,53.40
2018-08-28T12:31:09.118Z,53.00
2018-08-28T12:33:38.081Z,52.10
2018-08-28T12:36:06.916Z,53.00
2018-08-28T12:38:35.962Z,52.90
2018-08-28T12:41:04.873Z,52.60
2018-08-28T12:43:33.726Z,52.60
2018-08-28T12:46:02.695Z,51.40
2018-08-28T12:48:31.388Z,51.90
2018-08-28T12:51:00.313Z,51.10
2018-08-28T12:53:29.075Z,51.80
2018-08-28T12:56:01.650Z,50.80
2018-08-28T12:58:30.382Z,51.90
2018-08-28T13:00:59.149Z,52.40
2018-08-28T13:03:27.968Z,52.50
2018-08-28T13:05:56.813Z,53.40
2018-08-28T13:08:26.402Z,54.90
2018-08-28T13:10:55.273Z,53.70
2018-08-28T13:13:25.298Z,53.70
2018-08-28T13:15:54.007Z,54.00
2018-08-28T13:18:22.713Z,55.50
2018-08-28T13:20:51.473Z,53.20
2018-08-28T13:23:20.234Z,53.80
2018-08-28T13:25:49.003Z,52.50
2018-08-28T13:28:17.908Z,51.40
2018-08-28T13:30:46.615Z,52.00
2018-08-28T13:33:15.637Z,53.00
2018-08-28T13:35:44.445Z,52.70
2018-08-28T13:38:13.441Z,52.80
2018-08-28T13:40:42.468Z,53.40
2018-08-28T13:43:11.198Z,53.10
2018-08-28T13:45:39.957Z,52.40
2018-08-28T13:48:08.733Z,53.40
2018-08-28T13:50:37.541Z,52.40
2018-08-28T13:53:06.452Z,53.20
2018-08-28T13:55:35.175Z,54.00
2018-08-28T13:58:03.943Z,51.80
2018-08-28T14:00:33.075Z,51.80
2018-08-28T14:03:01.781Z,51.00
2018-08-28T14:05:30.482Z,50.80
2018-08-28T14:07:59.326Z,50.80
2018-08-28T14:10:28.057Z,50.40
2018-08-28T14:12:56.763Z,50.50
2018-08-28T14:15:25.516Z,49.90
2018-08-28T14:17:54.468Z,50.70
2018-08-28T14:20:23.210Z,50.30
2018-08-28T14:22:52.056Z,49.40
2018-08-28T14:25:20.852Z,49.50
2018-08-28T14:27:49.705Z,48.80
2018-08-28T14:30:18.408Z,49.10
2018-08-28T14:32:47.514Z,50.60
2018-08-28T14:35:16.287Z,52.10
2018-08-28T14:37:45.034Z,50.40
2018-08-28T14:40:13.952Z,50.10
2018-08-28T14:42:42.843Z,51.30
2018-08-28T14:45:11.715Z,49.00
2018-08-28T14:47:40.475Z,50.00
2018-08-28T14:50:09.766Z,49.60
2018-08-28T14:52:40.729Z,48.70
2018-08-28T14:55:09.789Z,49.70
2018-08-28T14:57:38.553Z,49.10
2018-08-28T15:00:07.629Z,48.60
2018-08-28T15:02:36.368Z,49.90
2018-08-28T15:05:05.284Z,48.70
2018-08-28T15:07:34.047Z,49.40
2018-08-28T15:10:02.901Z,48.90
2018-08-28T15:12:31.672Z,48.50
2018-08-28T15:15:00.456Z,48.50
2018-08-28T15:17:29.182Z,50.50
2018-08-28T15:19:57.991Z,49.60
2018-08-28T15:22:26.814Z,49.10
2018-08-28T15:24:55.686Z,49.50
2018-08-28T15:27:24.497Z,50.10
2018-08-28T15:29:54.415Z,50.50
2018-08-28T15:32:23.140Z,49.80
2018-08-28T15:34:51.897Z,49.60
2018-08-28T15:37:20.678Z,49.00
2018-08-28T15:39:49.386Z,49.40
2018-08-28T15:42:18.226Z,49.90
2018-08-28T15:44:47.102Z,49.20
2018-08-28T15:47:15.926Z,49.10
2018-08-28T15:49:46.890Z,48.70
2018-08-28T15:52:18.868Z,48.00
2018-08-28T15:54:47.623Z,48.30
2018-08-28T15:57:16.391Z,48.20
2018-08-28T15:59:45.108Z,48.10
2018-08-28T16:02:13.883Z,47.90
2018-08-28T16:04:44.987Z,48.60
2018-08-28T16:07:15.800Z,48.50
2018-08-28T16:09:44.561Z,48.10
2018-08-28T16:12:13.270Z,47.90
2018-08-28T16:14:41.980Z,47.70
2018-08-28T16:17:10.677Z,47.90
2018-08-28T16:19:39.394Z,48.70
2018-08-28T16:22:08.141Z,48.70
2018-08-28T16:24:36.873Z,47.70
2018-08-28T16:27:05.626Z,48.30
2018-08-28T16:29:34.329Z,47.90
2018-08-28T16:32:03.008Z,48.00
2018-08-28T16:34:31.714Z,48.40
2018-08-28T16:37:00.447Z,48.40
2018-08-28T16:39:29.262Z,47.70
2018-08-28T16:41:57.961Z,48.30
2018-08-28T16:44:26.647Z,48.40
2018-08-28T16:46:55.452Z,48.50
2018-08-28T16:49:24.093Z,47.30
2018-08-28T16:51:52.852Z,47.90
2018-08-28T16:54:21.605Z,48.30
2018-08-28T16:56:50.325Z,48.80
2018-08-28T16:59:19.709Z,47.80
2018-08-28T17:01:48.450Z,47.10
2018-08-28T17:04:17.202Z,47.20
2018-08-28T17:06:46.014Z,47.90
2018-08-28T17:09:14.797Z,47.80
2018-08-28T17:11:43.595Z,48.10
2018-08-28T17:14:12.417Z,48.30
2018-08-28T17:16:41.190Z,48.50
2018-08-28T17:19:09.964Z,48.20
2018-08-28T17:21:38.679Z,47.70
2018-08-28T17:24:07.385Z,47.10
2018-08-28T17:26:36.150Z,47.20
2018-08-28T17:29:05.021Z,48.00
2018-08-28T17:31:33.709Z,48.40
2018-08-28T17:34:02.574Z,48.40
2018-08-28T17:36:31.463Z,48.80
2018-08-28T17:39:00.174Z,49.40
2018-08-28T17:41:28.926Z,49.50
2018-08-28T17:43:57.658Z,49.50
2018-08-28T17:46:26.344Z,49.10
2018-08-28T17:48:55.147Z,49.60
2018-08-28T17:51:23.881Z,49.50
2018-08-28T17:53:52.683Z,49.80
2018-08-28T17:56:21.409Z,50.40
2018-08-28T17:58:50.105Z,50.70
2018-08-28T18:01:21.451Z,50.40
2018-08-28T18:03:50.255Z,50.40
2018-08-28T18:06:18.966Z,50.10
2018-08-28T18:08:47.705Z,50.60
2018-08-28T18:11:16.611Z,51.20
2018-08-28T18:13:45.321Z,51.40
2018-08-28T18:16:14.073Z,51.10
2018-08-28T18:18:42.928Z,51.60
2018-08-28T18:21:11.780Z,52.10
2018-08-28T18:23:40.644Z,52.40
2018-08-28T18:26:09.453Z,53.20
2018-08-28T18:28:38.233Z,53.80
2018-08-28T18:31:07.114Z,54.10
2018-08-28T18:33:35.883Z,54.40
2018-08-28T18:36:04.770Z,55.10
2018-08-28T18:38:33.456Z,54.60
2018-08-28T18:41:02.382Z,56.20
2018-08-28T18:43:31.162Z,56.10
2018-08-28T18:45:59.846Z,56.60
2018-08-28T18:48:28.616Z,56.60
2018-08-28T18:50:57.448Z,56.60
2018-08-28T18:53:26.259Z,56.20
2018-08-28T18:55:55.038Z,56.30
2018-08-28T18:58:23.968Z,56.60
2018-08-28T19:00:52.750Z,57.40
2018-08-28T19:03:21.706Z,57.90
2018-08-28T19:05:50.534Z,58.50
2018-08-28T19:08:19.289Z,58.70
2018-08-28T19:10:48.031Z,59.10
2018-08-28T19:13:16.837Z,59.80
2018-08-28T19:15:45.688Z,60.20
2018-08-28T19:18:14.517Z,60.40
2018-08-28T19:20:43.243Z,62.00
2018-08-28T19:23:12.024Z,63.30
2018-08-28T19:25:40.761Z,64.20
2018-08-28T19:28:09.582Z,65.20
2018-08-28T19:30:38.337Z,66.20
2018-08-28T19:33:07.076Z,66.60
2018-08-28T19:35:35.938Z,67.10
2018-08-28T19:38:05.012Z,67.40
2018-08-28T19:40:33.723Z,67.80
2018-08-28T19:43:02.613Z,68.60
2018-08-28T19:45:31.370Z,68.90
2018-08-28T19:48:00.188Z,68.40
2018-08-28T19:50:28.894Z,69.20
2018-08-28T19:52:57.760Z,69.50
2018-08-28T19:55:26.468Z,70.10
2018-08-28T19:57:55.209Z,70.00
2018-08-28T20:00:24.000Z,69.70
2018-08-28T20:02:56.506Z,70.00
2018-08-28T20:05:29.312Z,70.50
2018-08-28T20:07:58.109Z,70.50
2018-08-28T20:10:26.826Z,70.80
2018-08-28T20:12:55.566Z,71.10
2018-08-28T20:15:24.293Z,71.60
2018-08-28T20:17:53.014Z,71.90
2018-08-28T20:20:21.755Z,72.30
2018-08-28T20:22:50.537Z,71.60
2018-08-28T20:25:19.411Z,71.50
2018-08-28T20:27:48.215Z,72.10
2018-08-28T20:30:17.005Z,72.00
2018-08-28T20:32:45.767Z,72.70
2018-08-28T20:35:14.446Z,73.10
2018-08-28T20:37:43.250Z,72.80
2018-08-28T20:40:11.996Z,71.80
2018-08-28T20:42:40.753Z,71.10
2018-08-28T20:45:09.867Z,70.70
2018-08-28T20:47:38.595Z,70.00
2018-08-28T20:50:07.340Z,70.20
2018-08-28T20:52:36.101Z,69.80
2018-08-28T20:55:05.031Z,68.90
2018-08-28T20:57:33.788Z,68.10
2018-08-28T21:00:02.637Z,68.20
2018-08-28T21:02:31.451Z,67.80
2018-08-28T21:05:00.154Z,68.20
2018-08-28T21:07:28.929Z,68.50
2018-08-28T21:09:57.690Z,67.90
2018-08-28T21:12:27.428Z,67.20
2018-08-28T21:14:56.115Z,67.30
2018-08-28T21:17:24.812Z,67.40
2018-08-28T21:19:53.769Z,68.00
2018-08-28T21:22:22.484Z,68.00
2018-08-28T21:24:51.261Z,68.40
2018-08-28T21:27:20.030Z,68.00
2018-08-28T21:29:48.819Z,67.80
2018-08-28T21:32:17.564Z,67.60
2018-08-28T21:34:46.320Z,68.60
2018-08-28T21:37:15.116Z,66.40
2018-08-28T21:39:43.795Z,67.20
2018-08-28T21:42:12.634Z,65.80
2018-08-28T21:44:41.390Z,66.10
2018-08-28T21:47:10.102Z,66.20
2018-08-28T21:49:38.836Z,66.50
2018-08-28T21:52:07.621Z,67.00
2018-08-28T21:54:36.357Z,66.50
2018-08-28T21:57:05.109Z,66.50
2018-08-28T21:59:33.867Z,66.90
2018-08-28T22:02:02.578Z,67.50
2018-08-28T22:04:31.315Z,67.10
2018-08-28T22:07:05.200Z,67.80
2018-08-28T22:09:34.058Z,67.50
2018-08-28T22:12:02.994Z,67.70
2018-08-28T22:14:31.704Z,67.80
2018-08-28T22:17:00.785Z,68.60
2018-08-28T22:19:29.619Z,69.30
2018-08-28T22:21:58.407Z,69.90
2018-08-28T22:24:27.093Z,71.00
2018-08-28T22:26:55.752Z,71.70
2018-08-28T22:29:24.478Z,72.00
2018-08-28T22:31:53.193Z,72.60
2018-08-28T22:34:21.826Z,73.30
2018-08-28T22:36:50.572Z,73.80
2018-08-28T22:39:19.292Z,74.20
2018-08-28T22:41:48.038Z,75.10
2018-08-28T22:44:16.696Z,75.70
2018-08-28T22:46:45.354Z,76.70
2018-08-28T22:49:14.036Z,76.80
2018-08-28T22:51:42.671Z,77.40
2018-08-28T22:54:11.396Z,78.00
2018-08-28T22:56:40.102Z,78.50
2018-08-28T22:59:08.817Z,79.10
2018-08-28T23:01:37.502Z,79.40
2018-08-28T23:04:06.200Z,78.90
2018-08-28T23:06:34.934Z,79.80
2018-08-28T23:09:03.729Z,80.30
2018-08-28T23:11:32.685Z,80.80
2018-08-28T23:14:01.387Z,80.40
2018-08-28T23:16:30.120Z,81.40
2018-08-28T23:18:58.827Z,81.60
2018-08-28T23:21:29.116Z,82.80
2018-08-28T23:23:57.771Z,83.20
2018-08-28T23:26:26.495Z,83.20
2018-08-28T23:28:55.153Z,82.90
2018-08-28T23:31:23.866Z,83.30
2018-08-28T23:33:52.596Z,83.10
2018-08-28T23:36:21.320Z,83.60
2018-08-28T23:38:49.995Z,84.40
2018-08-28T23:41:18.603Z,85.30
2018-08-28T23:43:47.369Z,85.70
2018-08-28T23:46:16.098Z,87.10
2018-08-28T23:48:44.825Z,87.90
2018-08-28T23:51:13.529Z,89.00
2018-08-28T23:53:42.318Z,89.70
2018-08-28T23:56:11.042Z,89.50
2018-08-28T23:58:39.781Z,90.30
